Time;durP1;ratioP1;P1;durP2;ratioP2;P2;SDS_P1;SDS_P2;PMS_P1;PMS_P2;Temp;Humidity;BMP_temperature;BMP_pressure;BME280_temperature;BME280_humidity;BME280_pressure;Samples;Min_cycle;Max_cycle;Signal;HPM_P1;HPM_P2
2022/06/29 00:00:12;;;;;;;1999.90;999.90;;;14.90;99.90;;;;;;5024004;28;20028;-78
2022/06/29 00:02:38;;;;;;;1999.90;999.90;;;14.90;99.90;;;;;;5034912;28;20037;-78
2022/06/29 00:05:06;;;;;;;1999.90;999.90;;;14.90;99.90;;;;;;5035118;28;20437;-77
2022/06/29 00:07:32;;;;;;;1999.90;999.90;;;14.80;99.90;;;;;;5033908;28;20612;-77
2022/06/29 00:09:58;;;;;;;1999.90;999.90;;;14.80;99.90;;;;;;5034911;28;20435;-72
2022/06/29 00:12:27;;;;;;;1999.90;999.90;;;14.80;99.90;;;;;;5034561;28;20038;-72
2022/06/29 00:14:52;;;;;;;1999.90;999.90;;;14.80;99.90;;;;;;5034750;28;20092;-72
2022/06/29 00:17:18;;;;;;;1999.90;999.90;;;14.80;99.90;;;;;;5032856;28;20496;-78
2022/06/29 00:19:44;;;;;;;1999.90;999.90;;;14.80;99.90;;;;;;5032784;28;20043;-77
2022/06/29 00:22:10;;;;;;;1999.90;999.90;;;14.70;99.90;;;;;;5033776;28;20025;-72
2022/06/29 00:24:36;;;;;;;1999.90;999.90;;;14.70;99.90;;;;;;5034590;28;20523;-72
2022/06/29 00:27:02;;;;;;;1999.90;999.90;;;14.60;99.90;;;;;;5020914;28;20052;-77
2022/06/29 00:29:28;;;;;;;1999.90;999.90;;;14.60;99.90;;;;;;5020497;28;20516;-77
2022/06/29 00:31:54;;;;;;;1999.90;999.90;;;14.50;99.90;;;;;;5027807;28;20040;-77
2022/06/29 00:34:20;;;;;;;1999.90;999.90;;;14.50;99.90;;;;;;5014389;28;20030;-78
2022/06/29 00:36:46;;;;;;;1999.90;999.90;;;14.50;99.90;;;;;;5016516;28;20033;-78
2022/06/29 00:39:12;;;;;;;1999.90;999.90;;;14.50;99.90;;;;;;5029790;28;20492;-78
2022/06/29 00:41:39;;;;;;;1999.90;999.90;;;14.50;99.90;;;;;;5029038;28;20033;-78
2022/06/29 00:44:07;;;;;;;1999.90;999.90;;;14.50;99.90;;;;;;5034197;28;20396;-77
2022/06/29 00:46:34;;;;;;;1999.90;999.90;;;14.50;99.90;;;;;;5022109;28;20384;-78
2022/06/29 00:49:00;;;;;;;1999.90;999.90;;;14.50;99.90;;;;;;5034140;28;20033;-72
2022/06/29 00:51:28;;;;;;;1999.90;999.90;;;14.50;99.90;;;;;;5034261;28;20025;-76
2022/06/29 00:53:58;;;;;;;1999.90;999.90;;;14.50;99.90;;;;;;5028381;28;20058;-78
2022/06/29 00:56:25;;;;;;;1999.90;999.90;;;14.50;99.90;;;;;;5019007;28;20026;-78
2022/06/29 00:58:54;;;;;;;1999.90;999.90;;;14.50;99.90;;;;;;5034173;28;20433;-78
2022/06/29 01:01:20;;;;;;;1999.90;999.90;;;14.60;99.90;;;;;;5033804;28;20025;-72
2022/06/29 01:03:45;;;;;;;1999.90;999.90;;;14.60;99.90;;;;;;5033981;28;20079;-72
2022/06/29 01:06:11;;;;;;;1999.90;999.90;;;14.50;99.90;;;;;;5033719;28;20049;-77
2022/06/29 01:08:37;;;;;;;1999.90;999.90;;;14.40;99.90;;;;;;5033713;28;20022;-77
2022/06/29 01:11:03;;;;;;;1999.90;999.90;;;14.20;99.90;;;;;;5028852;28;20018;-77
2022/06/29 01:13:28;;;;;;;1999.90;999.90;;;14.20;99.90;;;;;;5025436;28;20022;-72
2022/06/29 01:15:54;;;;;;;1999.90;999.90;;;14.20;99.90;;;;;;5032643;28;20115;-77
2022/06/29 01:18:20;;;;;;;1999.90;999.90;;;14.20;99.90;;;;;;5033361;28;20021;-78
2022/06/29 01:20:46;;;;;;;1999.90;999.90;;;14.30;99.90;;;;;;5033452;28;20033;-77
2022/06/29 01:23:12;;;;;;;1999.90;999.90;;;14.30;99.90;;;;;;5032963;28;20104;-72
2022/06/29 01:25:38;;;;;;;1999.90;999.90;;;14.20;99.90;;;;;;5033387;28;20105;-72
2022/06/29 01:28:04;;;;;;;1999.90;999.90;;;14.30;99.90;;;;;;5033359;28;20397;-72
2022/06/29 01:30:29;;;;;;;1999.90;999.90;;;14.20;99.90;;;;;;5033378;28;20038;-77
2022/06/29 01:32:55;;;;;;;1999.90;999.90;;;14.20;99.90;;;;;;5032440;28;20167;-77
2022/06/29 01:35:23;;;;;;;1999.90;999.90;;;14.30;99.90;;;;;;5033210;28;20021;-77
2022/06/29 01:37:49;;;;;;;1999.90;999.90;;;14.50;99.90;;;;;;5030054;28;20083;-77
2022/06/29 01:40:15;;;;;;;1999.90;999.90;;;14.50;99.90;;;;;;5031264;28;20022;-78
2022/06/29 01:42:41;;;;;;;1999.90;999.90;;;14.50;99.90;;;;;;5027776;28;20105;-72
2022/06/29 01:45:07;;;;;;;1999.90;999.90;;;14.50;99.90;;;;;;5028899;28;20030;-72
2022/06/29 01:47:33;;;;;;;1999.90;999.90;;;14.50;99.90;;;;;;5024327;28;20033;-77
2022/06/29 01:49:59;;;;;;;1999.90;999.90;;;14.70;99.90;;;;;;5032853;28;20034;-72
2022/06/29 01:52:25;;;;;;;1999.90;999.90;;;14.70;99.90;;;;;;5032953;28;20021;-72
2022/06/29 01:54:50;;;;;;;1999.90;999.90;;;14.70;99.90;;;;;;5020430;28;20022;-77
2022/06/29 02:00:19;;;;;;;1999.90;999.90;;;14.70;99.90;;;;;;5032862;28;20084;-78
2022/06/29 02:09:29;;;;;;;1999.90;999.90;;;14.40;99.90;;;;;;5032795;28;20025;-73
2022/06/29 02:11:54;;;;;;;1999.90;999.90;;;14.40;99.90;;;;;;5032436;28;20026;-77
2022/06/29 02:14:20;;;;;;;1999.90;999.90;;;14.40;99.90;;;;;;5013718;28;20053;-78
2022/06/29 02:16:46;;;;;;;1999.90;999.90;;;14.40;99.90;;;;;;5012549;28;20026;-72
2022/06/29 02:19:12;;;;;;;1999.90;999.90;;;14.40;99.90;;;;;;5012744;28;20037;-72
2022/06/29 02:21:38;;;;;;;1999.90;999.90;;;14.30;99.90;;;;;;5024463;28;20018;-77
2022/06/29 02:24:04;;;;;;;1999.90;999.90;;;14.10;99.90;;;;;;5032431;28;20035;-72
2022/06/29 02:26:30;;;;;;;1999.90;999.90;;;14.00;99.90;;;;;;5032633;28;20404;-77
2022/06/29 02:28:57;;;;;;;1999.90;999.90;;;13.90;99.90;;;;;;5032392;28;20037;-77
2022/06/29 02:36:51;;;;;;;1999.90;999.90;;;13.90;99.90;;;;;;5032335;28;20626;-77
2022/06/29 02:39:16;;;;;;;1999.90;999.90;;;13.90;99.90;;;;;;5032432;28;20045;-73
2022/06/29 02:41:42;;;;;;;1999.90;999.90;;;13.90;99.90;;;;;;5019341;28;20052;-77
2022/06/29 02:44:07;;;;;;;1999.90;999.90;;;14.00;99.90;;;;;;5032363;28;20029;-72
2022/06/29 02:46:33;;;;;;;1999.90;999.90;;;14.00;99.90;;;;;;5029903;28;20026;-72
2022/06/29 02:48:59;;;;;;;1999.90;999.90;;;13.90;99.90;;;;;;5032383;28;20083;-72
2022/06/29 02:51:25;;;;;;;1999.90;999.90;;;13.90;99.90;;;;;;5032640;28;20029;-77
2022/06/29 02:53:51;;;;;;;1999.90;999.90;;;13.90;99.90;;;;;;5031818;28;20040;-78
2022/06/29 02:56:16;;;;;;;1999.90;999.90;;;13.90;99.90;;;;;;5015528;28;20477;-78
2022/06/29 02:58:42;;;;;;;1999.90;999.90;;;13.80;99.90;;;;;;5012693;28;20026;-73
2022/06/29 03:01:07;;;;;;;1999.90;999.90;;;13.80;99.90;;;;;;5032050;28;20022;-73
2022/06/29 03:03:33;;;;;;;1999.90;999.90;;;13.80;99.90;;;;;;5036295;28;20404;-77
2022/06/29 03:05:59;;;;;;;1999.90;999.90;;;13.80;99.90;;;;;;5036131;28;20034;-77
2022/06/29 03:08:24;;;;;;;1999.90;999.90;;;13.80;99.90;;;;;;5036158;28;20029;-77
2022/06/29 03:10:50;;;;;;;1999.90;999.90;;;13.80;99.90;;;;;;5032669;28;20036;-72
2022/06/29 03:13:16;;;;;;;1999.90;999.90;;;13.70;99.90;;;;;;5016412;28;20105;-78
2022/06/29 03:15:41;;;;;;;1999.90;999.90;;;13.70;99.90;;;;;;5015923;28;20033;-77
2022/06/29 03:18:07;;;;;;;1999.90;999.90;;;13.70;99.90;;;;;;5015847;28;20030;-77
2022/06/29 03:20:33;;;;;;;1999.90;999.90;;;13.70;99.90;;;;;;5031746;28;20026;-72
2022/06/29 03:22:58;;;;;;;1999.90;999.90;;;13.70;99.90;;;;;;5035444;28;20026;-77
2022/06/29 03:25:24;;;;;;;1999.90;999.90;;;13.70;99.90;;;;;;5036087;28;20362;-77
2022/06/29 03:27:49;;;;;;;1999.90;999.90;;;13.70;99.90;;;;;;5035069;28;20048;-72
2022/06/29 03:30:16;;;;;;;1999.90;999.90;;;13.70;99.90;;;;;;5031028;28;20105;-77
2022/06/29 03:32:42;;;;;;;1999.90;999.90;;;13.70;99.90;;;;;;5026603;28;20029;-77
2022/06/29 03:35:08;;;;;;;1999.90;999.90;;;13.70;99.90;;;;;;5030747;28;20026;-77
2022/06/29 03:37:33;;;;;;;1999.90;999.90;;;13.70;99.90;;;;;;5035103;28;20602;-72
2022/06/29 03:39:59;;;;;;;1999.90;999.90;;;13.70;99.90;;;;;;5035380;28;20022;-72
2022/06/29 03:42:25;;;;;;;1999.90;999.90;;;13.70;99.90;;;;;;5029910;28;20053;-72
2022/06/29 03:44:50;;;;;;;1999.90;999.90;;;13.80;99.90;;;;;;5035389;28;20045;-72
2022/06/29 03:47:16;;;;;;;1999.90;999.90;;;13.80;99.90;;;;;;5035117;28;20052;-72
2022/06/29 03:49:42;;;;;;;1999.90;999.90;;;13.90;99.90;;;;;;5035029;28;20463;-77
2022/06/29 03:52:07;;;;;;;1999.90;999.90;;;13.90;99.90;;;;;;5034995;28;20026;-72
2022/06/29 03:54:33;;;;;;;1999.90;999.90;;;13.90;99.90;;;;;;5032707;28;20025;-72
2022/06/29 03:56:58;;;;;;;1999.90;999.90;;;13.90;99.90;;;;;;5015461;28;20025;-77
2022/06/29 03:59:24;;;;;;;1999.90;999.90;;;13.90;99.90;;;;;;5017464;28;20018;-77
2022/06/29 04:01:50;;;;;;;1999.90;999.90;;;13.80;99.90;;;;;;5034993;28;20404;-72
2022/06/29 04:04:16;;;;;;;1999.90;999.90;;;13.80;99.90;;;;;;5035103;28;20029;-72
2022/06/29 04:06:42;;;;;;;1999.90;999.90;;;13.70;99.90;;;;;;5034472;28;20144;-77
2022/06/29 04:09:08;;;;;;;1999.90;999.90;;;13.60;99.90;;;;;;5034915;28;20388;-77
2022/06/29 04:11:48;;;;;;;1999.90;999.90;;;13.60;99.90;;;;;;5016734;28;20021;-78
2022/06/29 04:14:15;;;;;;;1999.90;999.90;;;13.60;99.90;;;;;;5034056;28;20026;-78
2022/06/29 04:16:41;;;;;;;1999.90;999.90;;;13.60;99.90;;;;;;5034551;28;20034;-78
2022/06/29 04:19:06;;;;;;;1999.90;999.90;;;13.70;99.90;;;;;;5016792;28;20040;-72
2022/06/29 04:21:32;;;;;;;1999.90;999.90;;;13.60;99.90;;;;;;5025548;28;20036;-76
2022/06/29 04:23:58;;;;;;;1999.90;999.90;;;13.60;99.90;;;;;;5034529;28;20021;-77
2022/06/29 04:26:23;;;;;;;1999.90;999.90;;;13.60;99.90;;;;;;5034817;28;20455;-78
2022/06/29 04:28:49;;;;;;;1999.90;999.90;;;13.60;99.90;;;;;;5034356;28;20021;-72
2022/06/29 04:31:14;;;;;;;1999.90;999.90;;;13.70;99.90;;;;;;5034528;28;20025;-72
2022/06/29 04:33:40;;;;;;;1999.90;999.90;;;13.60;99.90;;;;;;5034298;28;20053;-78
2022/06/29 04:36:06;;;;;;;1999.90;999.90;;;13.60;99.90;;;;;;5034829;28;20029;-78
2022/06/29 04:38:31;;;;;;;1999.90;999.90;;;13.50;99.90;;;;;;5045309;28;20017;-77
2022/06/29 04:40:59;;;;;;;1999.90;999.90;;;13.50;99.90;;;;;;5052922;28;20031;-77
2022/06/29 04:43:27;;;;;;;1999.90;999.90;;;13.50;99.90;;;;;;5045438;28;20068;-77
2022/06/29 04:48:38;;;;;;;1999.90;999.90;;;13.40;99.90;;;;;;5035051;28;20044;-78
2022/06/29 04:51:04;;;;;;;1999.90;999.90;;;13.50;99.90;;;;;;5034018;28;20037;-78
2022/06/29 04:53:29;;;;;;;1999.90;999.90;;;13.50;99.90;;;;;;5033628;28;20029;-78
2022/06/29 04:55:55;;;;;;;1999.90;999.90;;;13.50;99.90;;;;;;5019845;28;20122;-72
2022/06/29 04:58:20;;;;;;;1999.90;999.90;;;13.50;99.90;;;;;;5014023;28;20037;-78
2022/06/29 05:00:46;;;;;;;1999.90;999.90;;;13.60;99.90;;;;;;5027758;28;20028;-78
2022/06/29 05:03:12;;;;;;;1999.90;999.90;;;13.70;99.90;;;;;;5033798;28;20025;-78
2022/06/29 05:05:38;;;;;;;1999.90;999.90;;;13.80;99.90;;;;;;5033995;28;20026;-78
2022/06/29 05:08:04;;;;;;;1999.90;999.90;;;13.80;99.90;;;;;;5033591;28;20044;-78
2022/06/29 05:10:30;;;;;;;1999.90;999.90;;;13.90;99.90;;;;;;5033624;28;20384;-72
2022/06/29 05:12:56;;;;;;;1999.90;999.90;;;13.90;99.90;;;;;;5025865;28;20033;-78
2022/06/29 05:15:22;;;;;;;1999.90;999.90;;;14.00;99.90;;;;;;5014043;28;20034;-77
2022/06/29 05:17:48;;;;;;;1999.90;999.90;;;14.10;99.90;;;;;;5013382;28;20109;-77
2022/06/29 05:20:14;;;;;;;1999.90;999.90;;;14.20;99.90;;;;;;5013940;28;20026;-72
2022/06/29 05:22:40;;;;;;;1999.90;999.90;;;14.20;99.90;;;;;;5014041;28;20038;-72
2022/06/29 05:25:08;;;;;;;1999.90;999.90;;;14.20;99.90;;;;;;5033261;28;20044;-77
2022/06/29 05:27:34;;;;;;;1999.90;999.90;;;14.30;99.90;;;;;;5033340;28;20025;-77
2022/06/29 05:30:00;;;;;;;1999.90;999.90;;;14.30;99.90;;;;;;5032064;28;20033;-77
2022/06/29 05:32:25;;;;;;;1999.90;999.90;;;14.40;99.90;;;;;;5013287;28;20527;-78
2022/06/29 05:34:51;;;;;;;1999.90;999.90;;;14.40;99.90;;;;;;5009424;28;20065;-75
2022/06/29 05:37:17;;;;;;;1999.90;999.90;;;14.40;99.90;;;;;;5025476;28;20097;-71
2022/06/29 05:39:44;;;;;;;1999.90;999.90;;;14.40;99.90;;;;;;5031274;28;20108;-75
2022/06/29 05:42:12;;;;;;;1999.90;999.90;;;14.50;99.90;;;;;;5027909;28;20421;-75
2022/06/29 05:44:38;;;;;;;1999.90;999.90;;;14.60;99.90;;;;;;5015697;28;20038;-75
2022/06/29 05:47:04;;;;;;;1999.90;999.90;;;14.90;99.90;;;;;;5033235;28;20032;-71
2022/06/29 05:49:30;;;;;;;1999.90;999.90;;;15.30;99.90;;;;;;5032865;28;20037;-71
2022/06/29 05:51:56;;;;;;;1999.90;999.90;;;15.50;99.90;;;;;;5032800;28;20026;-75
2022/06/29 05:54:21;;;;;;;1999.90;999.90;;;15.50;99.90;;;;;;5032645;28;20063;-71
2022/06/29 05:56:47;;;;;;;1999.90;999.90;;;15.50;99.90;;;;;;5032888;28;20084;-71
2022/06/29 05:59:13;;;;;;;1999.90;999.90;;;15.60;99.90;;;;;;5032512;28;20060;-71
2022/06/29 06:01:38;;;;;;;1999.90;999.90;;;15.60;99.90;;;;;;5032861;28;20057;-71
2022/06/29 06:04:04;;;;;;;1999.90;999.90;;;15.90;99.90;;;;;;5031545;28;20021;-76
2022/06/29 06:06:30;;;;;;;1999.90;999.90;;;16.00;99.90;;;;;;5032769;28;20487;-71
2022/06/29 06:08:55;;;;;;;1999.90;999.90;;;16.10;99.90;;;;;;5031073;28;20495;-76
2022/06/29 06:11:21;;;;;;;1999.90;999.90;;;16.20;99.90;;;;;;5024010;28;20124;-75
2022/06/29 06:13:46;;;;;;;1999.90;999.90;;;16.10;99.90;;;;;;5031324;28;20033;-71
2022/06/29 06:16:12;;;;;;;1999.90;999.90;;;16.10;99.90;;;;;;5032800;28;20045;-76
2022/06/29 06:18:38;;;;;;;1999.90;999.90;;;16.20;99.90;;;;;;5032774;28;20041;-76
2022/06/29 06:21:03;;;;;;;1999.90;999.90;;;16.60;99.90;;;;;;5023644;28;20022;-71
2022/06/29 06:23:29;;;;;;;1999.90;999.90;;;16.80;99.90;;;;;;5024857;28;20025;-76
2022/06/29 06:25:54;;;;;;;1999.90;999.90;;;16.80;99.90;;;;;;5032812;28;20021;-71
2022/06/29 06:28:20;;;;;;;1999.90;999.90;;;17.00;99.90;;;;;;5028295;28;20033;-76
2022/06/29 06:30:46;;;;;;;1999.90;999.90;;;17.30;99.90;;;;;;5014372;28;20500;-76
2022/06/29 06:33:11;;;;;;;1999.90;999.90;;;17.30;99.90;;;;;;5026262;28;20029;-71
2022/06/29 06:35:37;;;;;;;1999.90;999.90;;;17.30;99.90;;;;;;5035331;28;20029;-76
2022/06/29 06:38:03;;;;;;;1999.90;999.90;;;17.20;99.90;;;;;;5018797;28;20030;-72
2022/06/29 06:43:16;;;;;;;1999.90;999.90;;;17.10;99.90;;;;;;5029003;28;20489;-76
2022/06/29 06:45:42;;;;;;;1999.90;999.90;;;17.30;99.90;;;;;;5035730;28;20156;-76
2022/06/29 06:48:08;;;;;;;1999.90;999.90;;;17.50;99.90;;;;;;5034874;28;20100;-76
2022/06/29 06:50:34;;;;;;;1999.90;999.90;;;17.80;99.90;;;;;;5029721;28;20631;-72
2022/06/29 06:52:59;;;;;;;1999.90;999.90;;;18.00;99.90;;;;;;5015774;28;20113;-76
2022/06/29 06:55:25;;;;;;;1999.90;999.90;;;18.10;99.90;;;;;;5035528;28;20471;-71
2022/06/29 06:57:51;;;;;;;1999.90;999.90;;;18.00;99.90;;;;;;5034528;28;20051;-76
2022/06/29 07:00:19;;;;;;;1999.90;999.90;;;18.00;99.90;;;;;;5024240;28;20022;-76
2022/06/29 07:02:45;;;;;;;1999.90;999.90;;;18.10;99.90;;;;;;5010196;28;20376;-76
2022/06/29 07:05:10;;;;;;;1999.90;999.90;;;18.20;99.90;;;;;;5032417;28;20056;-76
2022/06/29 07:07:41;;;;;;;1999.90;999.90;;;18.40;99.90;;;;;;5026547;28;20485;-77
2022/06/29 07:10:07;;;;;;;1999.90;999.90;;;18.70;99.90;;;;;;5026327;28;20040;-77
2022/06/29 07:12:33;;;;;;;1999.90;999.90;;;18.90;99.90;;;;;;5024823;28;20014;-73
2022/06/29 07:14:58;;;;;;;1999.90;999.90;;;18.90;99.90;;;;;;5027760;28;20120;-72
2022/06/29 07:17:29;;;;;;;1999.90;999.90;;;19.20;99.90;;;;;;5033838;28;20448;-74
2022/06/29 07:19:55;;;;;;;1999.90;999.90;;;19.30;99.90;;;;;;5034537;28;20030;-73
2022/06/29 07:22:20;;;;;;;1999.90;999.90;;;19.50;99.90;;;;;;5030860;28;20369;-80
2022/06/29 07:24:46;;;;;;;1999.90;999.90;;;19.60;99.90;;;;;;5034514;28;20495;-80
2022/06/29 07:27:12;;;;;;;1999.90;999.90;;;19.90;99.90;;;;;;5034407;28;20083;-80
2022/06/29 07:29:38;;;;;;;1999.90;999.90;;;20.00;99.90;;;;;;5025726;28;20045;-74
2022/06/29 07:32:04;;;;;;;1999.90;999.90;;;19.70;99.90;;;;;;5030191;28;20116;-79
2022/06/29 07:34:30;;;;;;;1999.90;999.90;;;19.60;99.90;;;;;;5029817;28;20087;-79
2022/06/29 07:36:56;;;;;;;1999.90;999.90;;;19.60;99.90;;;;;;5033197;28;20025;-79
2022/06/29 07:39:21;;;;;;;1999.90;999.90;;;19.60;99.90;;;;;;5025001;28;20030;-80
2022/06/29 07:41:47;;;;;;;1999.90;999.90;;;19.70;99.90;;;;;;5025996;28;20075;-74
2022/06/29 07:44:13;;;;;;;1999.90;999.90;;;20.10;99.90;;;;;;5027924;28;20368;-74
2022/06/29 07:46:38;;;;;;;1999.90;999.90;;;20.00;99.90;;;;;;5028163;28;20126;-74
2022/06/29 07:49:04;;;;;;;1999.90;999.90;;;19.80;99.90;;;;;;5033187;28;20516;-80
2022/06/29 07:51:30;;;;;;;1999.90;999.90;;;19.80;99.90;;;;;;5038086;28;20163;-79
2022/06/29 07:53:55;;;;;;;1999.90;999.90;;;20.10;99.90;;;;;;5034873;28;20504;-80
2022/06/29 07:56:21;;;;;;;1999.90;999.90;;;20.60;99.90;;;;;;5029256;28;20032;-79
2022/06/29 07:58:46;;;;;;;1999.90;999.90;;;20.70;99.90;;;;;;5018213;28;20061;-79
2022/06/29 08:01:12;;;;;;;1999.90;999.90;;;20.60;99.90;;;;;;5024327;28;20100;-80
2022/06/29 08:03:38;;;;;;;1999.90;999.90;;;20.40;99.90;;;;;;5031745;28;20109;-79
2022/06/29 08:06:07;;;;;;;1999.90;999.90;;;20.30;99.90;;;;;;5032495;28;20116;-78
2022/06/29 08:08:32;;;;;;;1999.90;999.90;;;20.30;99.90;;;;;;5030637;28;20037;-74
2022/06/29 08:10:58;;;;;;;1999.90;999.90;;;20.50;99.90;;;;;;5033812;28;20022;-74
2022/06/29 08:13:24;;;;;;;1999.90;999.90;;;20.70;99.90;;;;;;5027216;28;20035;-74
2022/06/29 08:15:50;;;;;;;1999.90;999.90;;;20.90;99.90;;;;;;5030819;28;20025;-78
2022/06/29 08:18:16;;;;;;;1999.90;999.90;;;21.00;99.90;;;;;;5033652;28;20037;-79
2022/06/29 08:20:43;;;;;;;1999.90;999.90;;;20.90;99.90;;;;;;5025013;28;20108;-74
2022/06/29 08:23:09;;;;;;;1999.90;999.90;;;20.90;99.90;;;;;;5019934;28;20029;-74
2022/06/29 08:25:35;;;;;;;1999.90;999.90;;;20.80;99.90;;;;;;5020613;28;20022;-75
2022/06/29 08:28:01;;;;;;;1999.90;999.90;;;20.60;99.90;;;;;;5016830;28;20044;-74
2022/06/29 08:30:28;;;;;;;1999.90;999.90;;;20.50;99.90;;;;;;5015105;28;20372;-80
2022/06/29 08:32:54;;;;;;;1999.90;999.90;;;20.60;99.90;;;;;;5017864;28;20061;-78
2022/06/29 08:35:19;;;;;;;1999.90;999.90;;;20.40;99.90;;;;;;5020828;28;20049;-73
2022/06/29 08:37:46;;;;;;;1999.90;999.90;;;20.10;99.90;;;;;;5019718;28;20459;-79
2022/06/29 08:40:15;;;;;;;1999.90;999.90;;;19.80;99.90;;;;;;5027268;28;20036;-79
2022/06/29 08:42:41;;;;;;;1999.90;999.90;;;19.70;99.90;;;;;;5023699;28;20061;-80
2022/06/29 08:45:09;;;;;;;1999.90;999.90;;;19.50;99.90;;;;;;5011883;28;20392;-74
2022/06/29 08:47:35;;;;;;;1999.90;999.90;;;19.40;99.90;;;;;;5020530;28;20037;-74
2022/06/29 08:50:06;;;;;;;1999.90;999.90;;;19.10;99.90;;;;;;5014620;28;20370;-74
2022/06/29 08:52:35;;;;;;;1999.90;999.90;;;19.00;99.90;;;;;;5025517;28;20021;-80
2022/06/29 08:55:06;;;;;;;1999.90;999.90;;;18.60;99.90;;;;;;5020209;28;20022;-78
2022/06/29 08:57:35;;;;;;;1999.90;999.90;;;18.30;99.90;;;;;;5019890;28;20029;-79
2022/06/29 09:00:02;;;;;;;1999.90;999.90;;;18.20;99.90;;;;;;5026399;28;20021;-74
2022/06/29 09:02:28;;;;;;;1999.90;999.90;;;18.10;99.90;;;;;;5012336;28;20028;-74
2022/06/29 09:04:54;;;;;;;1999.90;999.90;;;18.00;99.90;;;;;;5022777;28;20025;-74
2022/06/29 09:07:20;;;;;;;1999.90;999.90;;;18.10;99.90;;;;;;5027587;28;20060;-79
2022/06/29 09:10:12;;;;;;;1999.90;999.90;;;18.30;99.90;;;;;;5033916;28;20025;-74
2022/06/29 09:12:38;;;;;;;1999.90;999.90;;;18.60;99.90;;;;;;5028636;28;20511;-79
2022/06/29 09:15:07;;;;;;;1999.90;999.90;;;18.90;99.90;;;;;;5026573;28;20018;-79
2022/06/29 09:17:34;;;;;;;1999.90;999.90;;;18.50;99.90;;;;;;5019832;28;20030;-74
2022/06/29 09:20:00;;;;;;;1999.90;999.90;;;18.50;99.90;;;;;;5032367;28;20439;-80
2022/06/29 09:22:25;;;;;;;1999.90;999.90;;;18.20;99.90;;;;;;5034259;28;20029;-79
2022/06/29 09:24:51;;;;;;;1999.90;999.90;;;18.10;99.90;;;;;;5032972;28;20029;-74
2022/06/29 09:27:17;;;;;;;1999.90;999.90;;;18.00;99.90;;;;;;5015668;28;20026;-73
2022/06/29 09:29:44;;;;;;;1999.90;999.90;;;17.90;99.90;;;;;;5018994;28;20064;-73
2022/06/29 09:32:17;;;;;;;1999.90;999.90;;;17.90;99.90;;;;;;5032145;28;20566;-78
2022/06/29 09:34:48;;;;;;;1999.90;999.90;;;17.80;99.90;;;;;;5032902;28;20060;-78
2022/06/29 09:37:20;;;;;;;1999.90;999.90;;;17.70;99.90;;;;;;5031181;28;20025;-73
2022/06/29 09:39:48;;;;;;;1999.90;999.90;;;17.60;99.90;;;;;;5032900;28;20067;-78
2022/06/29 09:42:18;;;;;;;1999.90;999.90;;;17.60;99.90;;;;;;5029617;28;20028;-78
2022/06/29 09:44:45;;;;;;;1999.90;999.90;;;17.50;99.90;;;;;;5031135;28;20026;-78
2022/06/29 09:47:15;;;;;;;1999.90;999.90;;;17.30;99.90;;;;;;5028709;28;20497;-77
2022/06/29 09:49:45;;;;;;;1999.90;999.90;;;17.40;99.90;;;;;;5022615;28;20100;-73
2022/06/29 09:52:12;;;;;;;1999.90;999.90;;;17.50;99.90;;;;;;5027997;28;20034;-77
2022/06/29 09:54:56;;;;;;;1999.90;999.90;;;17.60;99.90;;;;;;5023559;28;20097;-72
2022/06/29 09:57:27;;;;;;;1999.90;999.90;;;17.70;99.90;;;;;;5030581;28;20033;-78
2022/06/29 10:02:47;;;;;;;;;;;17.80;99.90;;;;;;5030346;28;20040;-78
2022/06/29 10:05:20;;;;;;;1999.90;999.90;;;17.90;99.90;;;;;;5028466;28;19906;-73
2022/06/29 10:07:48;;;;;;;1999.90;999.90;;;17.90;99.90;;;;;;5011922;28;20050;-73
2022/06/29 10:10:21;;;;;;;1999.90;999.90;;;18.00;99.90;;;;;;5017500;28;20095;-78
2022/06/29 10:16:24;;;;;;;1999.90;999.90;;;18.00;99.90;;;;;;5016055;28;20108;-79
2022/06/29 10:19:11;;;;;;;1999.90;999.90;;;18.30;99.90;;;;;;5019937;28;20037;-73
2022/06/29 10:21:37;;;;;;;1999.90;999.90;;;18.30;99.90;;;;;;5030798;28;20025;-76
2022/06/29 10:24:03;;;;;;;1999.90;999.90;;;18.30;99.90;;;;;;5031806;28;20438;-78
2022/06/29 10:26:35;;;;;;;1999.90;999.90;;;18.40;99.90;;;;;;5013245;28;20519;-74
2022/06/29 10:29:09;;;;;;;1999.90;999.90;;;18.40;99.90;;;;;;5020466;28;20022;-79
2022/06/29 10:31:50;;;;;;;1999.90;999.90;;;18.50;99.90;;;;;;5015363;28;20418;-77
2022/06/29 10:34:31;;;;;;;1999.90;999.90;;;18.60;99.90;;;;;;5017731;28;20108;-71
2022/06/29 10:37:07;;;;;;;1999.90;999.90;;;18.70;99.90;;;;;;5020750;28;20029;-76
2022/06/29 10:39:45;;;;;;;1999.90;999.90;;;18.80;99.90;;;;;;5027828;28;20056;-77
2022/06/29 10:45:16;;;;;;;1999.90;999.90;;;18.90;99.90;;;;;;5017023;28;20075;-71
2022/06/29 10:47:54;;;;;;;1999.90;999.90;;;18.70;99.90;;;;;;5018608;28;20078;-77
2022/06/29 10:50:20;;;;;;;1999.90;999.90;;;18.60;99.90;;;;;;5014128;28;20026;-77
2022/06/29 10:52:47;;;;;;;1999.90;999.90;;;18.70;99.90;;;;;;5031129;28;20033;-77
2022/06/29 10:55:15;;;;;;;1999.90;999.90;;;18.90;99.90;;;;;;5024855;28;20469;-77
2022/06/29 10:57:44;;;;;;;1999.90;999.90;;;18.90;99.90;;;;;;5031769;28;20033;-74
2022/06/29 11:00:22;;;;;;;1999.90;999.90;;;19.10;99.90;;;;;;5022272;28;20029;-74
2022/06/29 11:02:48;;;;;;;1999.90;999.90;;;19.40;99.90;;;;;;5030707;28;20021;-79
2022/06/29 11:05:14;;;;;;;1999.90;999.90;;;19.60;99.90;;;;;;5031330;28;20045;-79
2022/06/29 11:13:23;;;;;;;1999.90;999.90;;;19.80;99.90;;;;;;5030686;28;20068;-74
2022/06/29 11:15:50;;;;;;;1999.90;999.90;;;19.60;99.90;;;;;;5031650;28;20053;-74
2022/06/29 11:18:29;;;;;;;1999.90;999.90;;;19.60;99.90;;;;;;5030912;28;20132;-78
2022/06/29 11:21:04;;;;;;;1999.90;999.90;;;19.50;99.90;;;;;;5033109;28;20558;-79
2022/06/29 11:23:34;;;;;;;1999.90;999.90;;;19.50;99.90;;;;;;5023537;28;20030;-79
2022/06/29 11:26:02;;;;;;;1999.90;999.90;;;19.80;99.90;;;;;;5034976;28;20022;-74
2022/06/29 11:28:32;;;;;;;1999.90;999.90;;;19.90;99.90;;;;;;5035518;28;20025;-74
2022/06/29 11:31:00;;;;;;;1999.90;999.90;;;19.70;99.90;;;;;;5034771;28;20025;-79
2022/06/29 11:33:33;;;;;;;1999.90;999.90;;;19.70;99.90;;;;;;5024108;28;20030;-79
2022/06/29 11:36:10;;;;;;;1999.90;999.90;;;19.80;99.90;;;;;;5034999;28;20107;-74
2022/06/29 11:38:40;;;;;;;1999.90;999.90;;;19.80;99.90;;;;;;5024967;28;20030;-73
2022/06/29 11:41:25;;;;;;;1999.90;999.90;;;19.80;99.90;;;;;;5029237;28;20100;-74
2022/06/29 11:44:31;;;;;;;1999.90;999.90;;;19.90;99.90;;;;;;5031353;28;20060;-79
2022/06/29 11:46:57;;;;;;;1999.90;999.90;;;20.00;99.90;;;;;;5034295;28;20485;-79
2022/06/29 11:49:42;;;;;;;1999.90;999.90;;;20.00;99.90;;;;;;5021089;28;20511;-80
2022/06/29 11:52:17;;;;;;;1999.90;999.90;;;20.00;99.90;;;;;;5034175;28;20029;-79
2022/06/29 11:54:48;;;;;;;1999.90;999.90;;;20.20;99.90;;;;;;5033947;28;20026;-73
2022/06/29 11:57:17;;;;;;;1999.90;999.90;;;20.20;99.90;;;;;;5032899;28;20033;-80
2022/06/29 11:59:47;;;;;;;1999.90;999.90;;;20.60;99.90;;;;;;5034453;28;20014;-74
2022/06/29 12:02:16;;;;;;;1999.90;999.90;;;21.00;99.90;;;;;;5022229;28;20021;-79
2022/06/29 12:04:58;;;;;;;1999.90;999.90;;;21.10;99.90;;;;;;5033474;28;20033;-74
2022/06/29 12:07:24;;;;;;;1999.90;999.90;;;21.20;99.90;;;;;;5022216;28;20523;-79
2022/06/29 12:09:57;;;;;;;1999.90;999.90;;;21.20;99.90;;;;;;5033954;28;20108;-74
2022/06/29 12:12:26;;;;;;;1999.90;999.90;;;21.20;99.90;;;;;;5028141;28;20483;-79
2022/06/29 12:15:00;;;;;;;1999.90;999.90;;;21.20;99.90;;;;;;5028650;28;20483;-77
2022/06/29 12:17:26;;;;;;;1999.90;999.90;;;21.60;99.90;;;;;;5024628;28;20025;-74
2022/06/29 12:19:52;;;;;;;1999.90;999.90;;;22.10;99.90;;;;;;5033717;28;20397;-79
2022/06/29 12:22:19;;;;;;;1999.90;999.90;;;22.60;99.90;;;;;;5033464;28;20025;-79
2022/06/29 12:24:45;;;;;;;1999.90;999.90;;;22.60;99.90;;;;;;5035636;28;20036;-74
2022/06/29 12:27:10;;;;;;;1999.90;999.90;;;22.90;99.90;;;;;;5033299;28;20463;-79
2022/06/29 12:29:36;;;;;;;1999.90;999.90;;;23.10;99.90;;;;;;5033966;28;20025;-74
2022/06/29 12:32:02;;;;;;;1999.90;999.90;;;23.30;99.90;;;;;;5015463;28;20028;-80
2022/06/29 12:34:27;;;;;;;1999.90;999.90;;;23.50;99.90;;;;;;5033506;28;20025;-80